Time;durP1;ratioP1;P1;durP2;ratioP2;P2;SDS_P1;SDS_P2;PMS_P1;PMS_P2;Temp;Humidity;BMP_temperature;BMP_pressure;BME280_temperature;BME280_humidity;BME280_pressure;Samples;Min_cycle;Max_cycle;Signal;HPM_P1;HPM_P2
2023/04/07 00:00:11;;;;;;;24.13;21.73;;;8.50;99.90;;;;;;5058615;28;20853;-73
2023/04/07 00:02:37;;;;;;;23.77;21.25;;;8.50;99.90;;;;;;5049496;28;20060;-73
2023/04/07 00:05:03;;;;;;;25.13;22.52;;;8.40;99.90;;;;;;5051858;28;20068;-73
2023/04/07 00:07:28;;;;;;;25.95;23.33;;;8.50;99.90;;;;;;5068278;28;20052;-73
2023/04/07 00:09:57;;;;;;;25.42;22.70;;;8.50;99.90;;;;;;5060256;28;20033;-73
2023/04/07 00:12:22;;;;;;;24.55;22.05;;;8.50;99.90;;;;;;5048769;28;20048;-73
2023/04/07 00:14:48;;;;;;;25.75;23.15;;;8.50;99.90;;;;;;5065242;28;20041;-73
2023/04/07 00:17:14;;;;;;;26.30;23.60;;;8.50;99.90;;;;;;5049061;28;20513;-73
2023/04/07 00:19:39;;;;;;;24.48;21.88;;;8.40;99.90;;;;;;5061336;28;20044;-73
2023/04/07 00:22:05;;;;;;;24.42;21.90;;;8.50;99.90;;;;;;5053751;28;20066;-73
2023/04/07 00:24:31;;;;;;;24.85;22.25;;;8.40;99.90;;;;;;5059669;28;20037;-73
2023/04/07 00:26:56;;;;;;;26.42;23.73;;;8.30;99.90;;;;;;5062329;28;20029;-73
2023/04/07 00:29:22;;;;;;;24.58;22.08;;;8.40;99.90;;;;;;5067125;28;20044;-73
2023/04/07 00:31:48;;;;;;;26.65;23.67;;;8.40;99.90;;;;;;5059858;28;20040;-73
2023/04/07 00:34:13;;;;;;;26.00;23.33;;;8.40;99.90;;;;;;5060697;28;20490;-73
2023/04/07 00:36:39;;;;;;;25.67;23.08;;;8.40;99.90;;;;;;5065449;28;20056;-73
2023/04/07 00:39:05;;;;;;;26.70;23.98;;;8.40;99.90;;;;;;5059263;28;20142;-73
2023/04/07 00:41:34;;;;;;;25.42;22.20;;;8.40;99.90;;;;;;5047535;28;20056;-73
2023/04/07 00:44:00;;;;;;;25.33;22.63;;;8.40;99.90;;;;;;5063602;28;20503;-73
2023/04/07 00:46:25;;;;;;;26.98;24.27;;;8.40;99.90;;;;;;5063075;28;20035;-73
2023/04/07 00:48:51;;;;;;;25.55;22.85;;;8.40;99.90;;;;;;5069700;28;20040;-73
2023/04/07 00:51:21;;;;;;;26.67;23.85;;;8.40;99.90;;;;;;5037097;28;20060;-73
2023/04/07 00:53:48;;;;;;;26.27;23.55;;;8.40;99.90;;;;;;5061110;28;20092;-73
2023/04/07 00:56:14;;;;;;;27.95;25.05;;;8.50;99.90;;;;;;5064366;28;20080;-73
2023/04/07 00:58:40;;;;;;;25.13;22.48;;;8.40;99.90;;;;;;5066003;28;20442;-73
2023/04/07 01:01:15;;;;;;;27.27;24.42;;;8.40;99.90;;;;;;5059876;28;20040;-73
2023/04/07 01:03:51;;;;;;;25.95;23.35;;;8.40;99.90;;;;;;5063367;28;20407;-73
2023/04/07 01:06:23;;;;;;;27.13;24.23;;;8.40;99.90;;;;;;5064965;28;20124;-73
2023/04/07 01:09:13;;;;;;;28.05;25.13;;;8.40;99.90;;;;;;5066395;28;20119;-73
2023/04/07 01:11:50;;;;;;;25.33;22.70;;;8.40;99.90;;;;;;5062503;28;20114;-73
2023/04/07 01:14:17;;;;;;;25.70;23.10;;;8.40;99.90;;;;;;5043034;28;20115;-73
2023/04/07 01:16:49;;;;;;;26.20;23.58;;;8.40;99.90;;;;;;5068679;28;20040;-73
2023/04/07 01:19:40;;;;;;;26.38;23.48;;;8.40;99.90;;;;;;5058845;28;20037;-73
2023/04/07 01:22:11;;;;;;;25.77;23.10;;;8.40;99.90;;;;;;5046240;28;20045;-73
2023/04/07 01:25:11;;;;;;;26.00;23.42;;;8.40;99.90;;;;;;5044434;28;20045;-73
2023/04/07 01:28:05;;;;;;;27.13;23.98;;;8.40;99.90;;;;;;5045016;28;20052;-73
2023/04/07 01:30:33;;;;;;;28.90;25.77;;;8.40;99.90;;;;;;5047190;28;20052;-73
2023/04/07 01:33:00;;;;;;;27.42;24.60;;;8.40;99.90;;;;;;5047476;28;20056;-73
2023/04/07 01:35:29;;;;;;;29.70;26.58;;;8.30;99.90;;;;;;5058763;28;20053;-73
2023/04/07 01:37:56;;;;;;;30.13;27.05;;;8.30;99.90;;;;;;5060478;28;20078;-73
2023/04/07 01:40:24;;;;;;;28.88;25.88;;;8.30;99.90;;;;;;5040671;28;20041;-73
2023/04/07 01:42:50;;;;;;;;;;;8.30;99.90;;;;;;5067154;28;20052;-73
2023/04/07 01:45:16;;;;;;;29.27;26.20;;;8.20;99.90;;;;;;5063074;28;20296;-73
2023/04/07 01:47:43;;;;;;;27.98;25.10;;;8.20;99.90;;;;;;5041662;28;20091;-73
2023/04/07 01:50:12;;;;;;;27.00;24.17;;;8.30;99.90;;;;;;5069746;28;20059;-73
2023/04/07 01:52:39;;;;;;;28.20;25.40;;;8.30;99.90;;;;;;5067526;28;20976;-73
2023/04/07 01:55:05;;;;;;;28.75;25.70;;;8.30;99.90;;;;;;5047253;28;20164;-73
2023/04/07 01:57:31;;;;;;;27.47;24.60;;;8.30;99.90;;;;;;5062118;28;20052;-73
2023/04/07 01:59:57;;;;;;;26.23;23.45;;;8.30;99.90;;;;;;5057506;28;20037;-73
2023/04/07 02:02:23;;;;;;;29.65;26.67;;;8.30;99.90;;;;;;5041180;28;20055;-73
2023/04/07 02:04:55;;;;;;;26.63;23.98;;;8.30;99.90;;;;;;5061358;28;20492;-73
2023/04/07 02:07:40;;;;;;;26.52;23.77;;;8.30;99.90;;;;;;5053039;28;20068;-73
2023/04/07 02:10:10;;;;;;;28.25;25.23;;;8.30;99.90;;;;;;5070332;28;20049;-73
2023/04/07 02:12:38;;;;;;;29.10;26.25;;;8.20;99.90;;;;;;5065303;28;20485;-72
2023/04/07 02:15:07;;;;;;;28.25;25.23;;;8.30;99.90;;;;;;5063735;28;20040;-73
2023/04/07 02:17:36;;;;;;;28.15;25.15;;;8.30;99.90;;;;;;5049839;28;20052;-73
2023/04/07 02:20:05;;;;;;;30.13;27.05;;;8.30;99.90;;;;;;5047332;28;20052;-73
2023/04/07 02:22:31;;;;;;;29.73;26.70;;;8.30;99.90;;;;;;5058232;28;20126;-73
2023/04/07 02:24:57;;;;;;;30.25;27.27;;;8.30;99.90;;;;;;5035500;28;20127;-73
2023/04/07 02:27:23;;;;;;;31.63;28.25;;;8.30;99.90;;;;;;5044697;28;20606;-73
2023/04/07 02:29:49;;;;;;;31.67;28.50;;;8.30;99.90;;;;;;5067648;28;20055;-73
2023/04/07 02:32:16;;;;;;;29.25;26.08;;;8.30;99.90;;;;;;5067770;28;20040;-73
2023/04/07 02:34:42;;;;;;;;;;;8.20;99.90;;;;;;5061295;28;20061;-72
2023/04/07 02:37:08;;;;;;;27.95;24.75;;;8.20;99.90;;;;;;5045404;28;20391;-73
2023/04/07 02:39:33;;;;;;;27.02;24.23;;;8.20;99.90;;;;;;5046725;28;20051;-72
2023/04/07 02:41:59;;;;;;;29.42;26.27;;;8.20;99.90;;;;;;5061415;28;20045;-72
2023/04/07 02:44:25;;;;;;;27.52;24.67;;;8.20;99.90;;;;;;5046248;28;20613;-72
2023/04/07 02:46:50;;;;;;;27.50;24.60;;;8.20;99.90;;;;;;5061987;28;20046;-73
2023/04/07 02:49:16;;;;;;;27.83;24.52;;;8.20;99.90;;;;;;5064885;28;20047;-72
2023/04/07 02:51:42;;;;;;;33.08;27.48;;;8.20;99.90;;;;;;5065975;28;20055;-72
2023/04/07 02:54:07;;;;;;;31.75;26.75;;;8.20;99.90;;;;;;5059372;28;20056;-72
2023/04/07 02:56:33;;;;;;;26.75;23.85;;;8.10;99.90;;;;;;5064423;28;20052;-72
2023/04/07 02:58:58;;;;;;;27.60;24.63;;;8.10;99.90;;;;;;5064336;28;20491;-72
2023/04/07 03:01:24;;;;;;;29.30;26.17;;;8.10;99.90;;;;;;5045188;28;20124;-72
2023/04/07 03:03:50;;;;;;;29.70;26.60;;;8.10;99.90;;;;;;5062824;28;20239;-72
2023/04/07 03:06:15;;;;;;;26.13;23.13;;;8.10;99.90;;;;;;5063965;28;20036;-72
2023/04/07 03:08:41;;;;;;;27.70;25.00;;;8.10;99.90;;;;;;5066285;28;20037;-73
2023/04/07 03:11:07;;;;;;;29.95;26.23;;;8.00;99.90;;;;;;5041540;28;20051;-72
2023/04/07 03:13:32;;;;;;;29.25;26.15;;;8.10;99.90;;;;;;5048445;28;20040;-72
2023/04/07 03:15:58;;;;;;;29.17;26.08;;;8.00;99.90;;;;;;5059060;28;20033;-72
2023/04/07 03:18:24;;;;;;;27.75;24.88;;;8.00;99.90;;;;;;5057940;28;20041;-72
2023/04/07 03:20:51;;;;;;;27.08;24.23;;;8.00;99.90;;;;;;5043473;28;20093;-72
2023/04/07 03:23:17;;;;;;;28.13;24.95;;;8.00;99.90;;;;;;5042745;28;20129;-72
2023/04/07 03:25:43;;;;;;;28.08;25.00;;;8.00;99.90;;;;;;5055799;28;20154;-72
2023/04/07 03:28:09;;;;;;;29.25;25.95;;;8.10;99.90;;;;;;5044228;28;20045;-72
2023/04/07 03:30:35;;;;;;;30.20;27.08;;;8.10;99.90;;;;;;5043772;28;20036;-72
2023/04/07 03:33:01;;;;;;;30.67;27.63;;;8.00;99.90;;;;;;5062435;28;20101;-72
2023/04/07 03:35:27;;;;;;;27.80;24.92;;;8.00;99.90;;;;;;5059578;28;20674;-72
2023/04/07 03:37:52;;;;;;;29.20;26.00;;;8.00;99.90;;;;;;5063723;28;20395;-73
2023/04/07 03:40:18;;;;;;;29.60;26.45;;;8.10;99.90;;;;;;5067949;28;20120;-73
2023/04/07 03:42:45;;;;;;;29.67;26.67;;;8.10;99.90;;;;;;5045308;28;20407;-73
2023/04/07 03:45:11;;;;;;;26.83;23.95;;;8.10;99.90;;;;;;5071830;28;20052;-73
2023/04/07 03:47:36;;;;;;;29.05;26.05;;;8.00;99.90;;;;;;5046949;28;20051;-73
2023/04/07 03:50:02;;;;;;;28.25;25.23;;;8.00;99.90;;;;;;5062509;28;20392;-72
2023/04/07 03:52:28;;;;;;;29.15;25.17;;;8.00;99.90;;;;;;5067550;28;20467;-72
2023/04/07 03:54:53;;;;;;;28.98;25.83;;;8.00;99.90;;;;;;5053488;28;20410;-73
2023/04/07 03:57:19;;;;;;;27.02;24.15;;;7.90;99.90;;;;;;5061763;28;20403;-73
2023/04/07 03:59:49;;;;;;;29.42;26.23;;;8.00;99.90;;;;;;5058487;28;20404;-72
2023/04/07 04:02:16;;;;;;;30.23;26.10;;;8.00;99.90;;;;;;5062570;28;20057;-73
2023/04/07 04:04:41;;;;;;;29.23;26.23;;;7.90;99.90;;;;;;5061072;28;20804;-73
2023/04/07 04:07:07;;;;;;;30.02;26.20;;;7.90;99.90;;;;;;5046646;28;20144;-73
2023/04/07 04:09:32;;;;;;;29.77;26.63;;;7.90;99.90;;;;;;5057231;28;20041;-72
2023/04/07 04:11:58;;;;;;;28.73;25.75;;;7.90;99.90;;;;;;5044026;28;20036;-73
2023/04/07 04:14:24;;;;;;;28.25;25.15;;;7.90;99.90;;;;;;5068678;28;20148;-73
2023/04/07 04:16:49;;;;;;;28.90;25.80;;;7.90;99.90;;;;;;5072198;28;20041;-72
2023/04/07 04:19:15;;;;;;;27.42;24.42;;;7.90;99.90;;;;;;5065713;28;20761;-73
2023/04/07 04:21:40;;;;;;;28.45;25.10;;;7.90;99.90;;;;;;5065924;28;20399;-73
2023/04/07 04:24:06;;;;;;;28.00;25.00;;;7.90;99.90;;;;;;5069533;28;20513;-73
2023/04/07 04:26:32;;;;;;;27.92;24.92;;;7.90;99.90;;;;;;5044748;28;20119;-73
2023/04/07 04:28:57;;;;;;;28.95;25.83;;;7.90;99.90;;;;;;5068818;28;20377;-73
2023/04/07 04:31:23;;;;;;;27.80;24.65;;;7.90;99.90;;;;;;5045432;28;20109;-73
2023/04/07 04:33:48;;;;;;;26.95;23.83;;;7.90;99.90;;;;;;5066944;28;20118;-72
2023/04/07 04:36:14;;;;;;;26.85;24.05;;;7.90;99.90;;;;;;5070889;28;20507;-72
2023/04/07 04:38:40;;;;;;;29.55;25.20;;;7.90;99.90;;;;;;5045919;28;20041;-72
2023/04/07 04:41:05;;;;;;;26.08;23.27;;;7.90;99.90;;;;;;5061796;28;20055;-72
2023/04/07 04:43:31;;;;;;;28.75;25.10;;;7.90;99.90;;;;;;5067718;28;20045;-73
2023/04/07 04:45:57;;;;;;;28.55;23.52;;;7.80;99.90;;;;;;5045713;28;20120;-72
2023/04/07 04:48:23;;;;;;;26.80;23.90;;;7.80;99.90;;;;;;5046019;28;20484;-72
2023/04/07 04:50:49;;;;;;;27.13;24.17;;;7.80;99.90;;;;;;5041233;28;20042;-72
2023/04/07 04:53:14;;;;;;;26.20;23.40;;;7.90;99.90;;;;;;5068168;28;20443;-73
2023/04/07 04:55:42;;;;;;;26.92;24.05;;;7.80;99.90;;;;;;5062413;28;20067;-72
2023/04/07 04:58:08;;;;;;;26.42;23.27;;;7.80;99.90;;;;;;5068548;28;20045;-72
2023/04/07 05:00:34;;;;;;;28.42;25.42;;;7.80;99.90;;;;;;5045307;28;20044;-72
2023/04/07 05:03:00;;;;;;;29.50;24.00;;;7.80;99.90;;;;;;5038209;28;20460;-73
2023/04/07 05:05:25;;;;;;;27.95;25.13;;;7.90;99.90;;;;;;5046324;28;20056;-73
2023/04/07 05:07:51;;;;;;;27.42;24.50;;;7.80;99.90;;;;;;5041985;28;20041;-73
2023/04/07 05:10:16;;;;;;;27.02;23.48;;;7.80;99.90;;;;;;5039942;28;20495;-72
2023/04/07 05:12:42;;;;;;;27.33;24.40;;;7.80;99.90;;;;;;5040275;28;20135;-73
2023/04/07 05:15:08;;;;;;;26.83;23.85;;;7.80;99.90;;;;;;5047337;28;20076;-72
2023/04/07 05:17:34;;;;;;;27.75;24.42;;;7.80;99.90;;;;;;5040780;28;20128;-73
2023/04/07 05:20:00;;;;;;;27.17;23.60;;;7.80;99.90;;;;;;5044630;28;20125;-72
2023/04/07 05:22:25;;;;;;;28.70;25.48;;;7.90;99.90;;;;;;5043609;28;20045;-73
2023/04/07 05:24:51;;;;;;;25.48;22.70;;;7.90;99.90;;;;;;5043642;28;20041;-72
2023/04/07 05:27:16;;;;;;;27.52;24.52;;;7.80;99.90;;;;;;5037944;28;20396;-73
2023/04/07 05:29:42;;;;;;;27.13;24.25;;;7.90;99.90;;;;;;5047146;28;20045;-73
2023/04/07 05:32:08;;;;;;;26.65;23.73;;;7.80;99.90;;;;;;5038716;28;20047;-72
2023/04/07 05:34:33;;;;;;;28.63;25.58;;;7.80;99.90;;;;;;5043185;28;20080;-73
2023/04/07 05:36:59;;;;;;;28.15;24.55;;;7.90;99.90;;;;;;5034966;28;20037;-73
2023/04/07 05:39:25;;;;;;;27.38;23.45;;;7.80;99.90;;;;;;5034862;28;20564;-73
2023/04/07 05:41:51;;;;;;;28.13;25.20;;;7.80;99.90;;;;;;5038880;28;20766;-72
2023/04/07 05:44:16;;;;;;;28.15;25.02;;;7.80;99.90;;;;;;5047445;28;20158;-73
2023/04/07 05:46:42;;;;;;;29.27;24.98;;;7.80;99.90;;;;;;5045343;28;20127;-73
2023/04/07 05:49:10;;;;;;;27.60;24.65;;;7.80;99.90;;;;;;5025562;28;20045;-72
2023/04/07 05:51:35;;;;;;;28.92;24.73;;;7.80;99.90;;;;;;5034996;28;20052;-72
2023/04/07 05:54:02;;;;;;;26.98;24.10;;;7.80;99.90;;;;;;5042067;28;20487;-72
2023/04/07 05:56:28;;;;;;;26.83;24.03;;;7.80;99.90;;;;;;5040628;28;20470;-72
2023/04/07 05:58:54;;;;;;;28.88;25.77;;;7.80;99.90;;;;;;5049710;28;20123;-72
2023/04/07 06:01:20;;;;;;;28.80;24.98;;;7.80;99.90;;;;;;5053513;28;20059;-72
2023/04/07 06:03:45;;;;;;;29.70;26.40;;;7.90;99.90;;;;;;5051546;28;20525;-73
2023/04/07 06:06:11;;;;;;;29.33;26.13;;;7.80;99.90;;;;;;5048512;28;20044;-72
2023/04/07 06:08:36;;;;;;;28.13;25.13;;;7.80;99.90;;;;;;5062030;28;20036;-72
2023/04/07 06:11:02;;;;;;;27.90;24.67;;;7.80;99.90;;;;;;5046823;28;20049;-72
2023/04/07 06:13:28;;;;;;;28.65;25.52;;;7.80;99.90;;;;;;5061597;28;20052;-72
2023/04/07 06:15:55;;;;;;;26.70;23.80;;;7.90;99.90;;;;;;5050848;28;20049;-72
2023/04/07 06:18:21;;;;;;;30.20;24.75;;;7.80;99.90;;;;;;5044750;28;20496;-72
2023/04/07 06:20:47;;;;;;;27.45;24.35;;;7.90;99.90;;;;;;5049412;28;20056;-72
2023/04/07 06:23:13;;;;;;;26.65;23.85;;;7.90;99.90;;;;;;5043094;28;20143;-72
2023/04/07 06:25:39;;;;;;;25.98;23.02;;;7.90;99.90;;;;;;5061537;28;20183;-72
2023/04/07 06:28:05;;;;;;;27.30;24.50;;;7.90;99.90;;;;;;5059030;28;20140;-72
2023/04/07 06:30:31;;;;;;;27.10;24.10;;;8.00;99.90;;;;;;5044985;28;20064;-72
2023/04/07 06:32:56;;;;;;;28.38;23.67;;;8.00;99.90;;;;;;5065127;28;20041;-72
2023/04/07 06:35:25;;;;;;;29.17;25.55;;;7.90;99.90;;;;;;5067258;28;20047;-73
2023/04/07 06:37:52;;;;;;;27.80;23.38;;;8.00;99.90;;;;;;5064893;28;20045;-71
2023/04/07 06:40:17;;;;;;;25.42;22.73;;;8.00;99.90;;;;;;5041703;28;20094;-72
2023/04/07 06:42:44;;;;;;;26.00;23.20;;;8.00;99.90;;;;;;5043144;28;20127;-72
2023/04/07 06:45:10;;;;;;;25.55;22.00;;;8.10;99.90;;;;;;5040837;28;20055;-72
2023/04/07 06:47:37;;;;;;;26.40;22.92;;;8.10;99.90;;;;;;5034360;28;20045;-72
2023/04/07 06:50:03;;;;;;;25.98;23.25;;;8.10;99.90;;;;;;5070453;28;20356;-73
2023/04/07 06:52:29;;;;;;;24.17;21.38;;;8.10;99.90;;;;;;5065251;28;20048;-72
2023/04/07 06:54:55;;;;;;;26.90;22.67;;;8.10;99.90;;;;;;5042057;28;20033;-72
2023/04/07 06:57:21;;;;;;;23.77;20.92;;;8.10;99.90;;;;;;5039584;28;20537;-72
2023/04/07 06:59:47;;;;;;;23.27;20.88;;;8.20;99.90;;;;;;5047554;28;20048;-72
2023/04/07 07:02:16;;;;;;;24.85;22.17;;;8.10;99.90;;;;;;5040736;28;20509;-72
2023/04/07 07:04:41;;;;;;;25.67;22.40;;;8.10;99.90;;;;;;5046130;28;20041;-72
2023/04/07 07:07:07;;;;;;;25.67;23.08;;;8.10;99.90;;;;;;5047634;28;20129;-73
2023/04/07 07:09:33;;;;;;;27.40;24.30;;;8.10;99.90;;;;;;5038302;28;20048;-72
2023/04/07 07:12:02;;;;;;;25.88;22.88;;;8.20;99.90;;;;;;5036546;28;20056;-72
2023/04/07 07:14:28;;;;;;;28.40;23.60;;;8.20;99.90;;;;;;5032734;28;20042;-72
2023/04/07 07:16:53;;;;;;;26.83;24.05;;;8.20;99.90;;;;;;5042448;28;20059;-72
2023/04/07 07:19:19;;;;;;;28.02;24.05;;;8.30;99.90;;;;;;5041721;28;20076;-72
2023/04/07 07:21:45;;;;;;;26.75;23.88;;;8.30;99.90;;;;;;5042813;28;20123;-72
2023/04/07 07:24:11;;;;;;;27.40;24.45;;;8.40;99.90;;;;;;5046013;28;20079;-75
2023/04/07 07:26:40;;;;;;;26.75;24.02;;;8.40;99.90;;;;;;5044295;28;20045;-72
2023/04/07 07:29:06;;;;;;;27.73;24.77;;;8.40;99.90;;;;;;5043390;28;20045;-72
2023/04/07 07:31:32;;;;;;;27.63;24.73;;;8.50;99.90;;;;;;5042124;28;20447;-71
2023/04/07 07:34:15;;;;;;;28.75;25.83;;;8.50;99.90;;;;;;5038795;28;20073;-70
2023/04/07 07:36:40;;;;;;;26.92;24.23;;;8.50;99.90;;;;;;5043946;28;20129;-71
2023/04/07 07:39:06;;;;;;;29.00;26.00;;;8.50;99.90;;;;;;5033271;28;20128;-70
2023/04/07 07:41:32;;;;;;;27.65;24.85;;;8.50;99.90;;;;;;5042674;28;20140;-70
2023/04/07 07:44:01;;;;;;;29.05;25.98;;;8.50;99.90;;;;;;5041289;28;20041;-70
2023/04/07 07:46:27;;;;;;;28.98;25.98;;;8.50;99.90;;;;;;5033589;28;20045;-69
2023/04/07 07:48:56;;;;;;;28.30;25.60;;;8.50;99.90;;;;;;5033020;28;20443;-69
2023/04/07 07:51:22;;;;;;;28.88;25.77;;;8.50;99.90;;;;;;5038586;28;20133;-69
2023/04/07 07:53:47;;;;;;;28.40;25.63;;;8.60;99.90;;;;;;5040743;28;20034;-70
2023/04/07 07:56:15;;;;;;;30.13;27.13;;;8.60;99.90;;;;;;5033450;28;20041;-70
2023/04/07 07:58:41;;;;;;;29.85;27.08;;;8.60;99.90;;;;;;5040767;28;20046;-70
2023/04/07 08:01:15;;;;;;;29.77;26.55;;;8.70;99.90;;;;;;5036418;28;20064;-70
2023/04/07 08:03:41;;;;;;;32.08;28.92;;;8.70;99.90;;;;;;5055242;28;20055;-70
2023/04/07 08:06:08;;;;;;;35.55;32.05;;;8.70;99.90;;;;;;5037627;28;20431;-70
2023/04/07 08:08:34;;;;;;;37.03;33.22;;;8.80;99.90;;;;;;5062550;28;20049;-70
2023/04/07 08:11:00;;;;;;;36.03;32.45;;;8.80;99.90;;;;;;5065633;28;20124;-70
2023/04/07 08:13:25;;;;;;;36.17;32.55;;;8.90;99.90;;;;;;5062984;28;20119;-71
2023/04/07 08:15:51;;;;;;;33.85;30.63;;;8.90;99.90;;;;;;5065263;28;20062;-72
2023/04/07 08:18:17;;;;;;;36.35;32.95;;;9.00;99.90;;;;;;5056297;28;20040;-71
2023/04/07 08:20:43;;;;;;;35.67;32.30;;;9.00;99.90;;;;;;5056268;28;20127;-71
2023/04/07 08:23:08;;;;;;;34.53;31.15;;;9.00;99.90;;;;;;5066309;28;20063;-71
2023/04/07 08:25:34;;;;;;;30.20;27.25;;;9.00;99.90;;;;;;5054051;28;20396;-70
2023/04/07 08:28:00;;;;;;;28.63;25.83;;;9.10;99.90;;;;;;5058464;28;20155;-71
2023/04/07 08:30:28;;;;;;;25.65;23.08;;;9.10;99.90;;;;;;5042999;28;20379;-71
2023/04/07 08:32:54;;;;;;;23.42;21.05;;;9.00;99.90;;;;;;5065589;28;20052;-70
2023/04/07 08:35:20;;;;;;;20.73;18.70;;;9.00;99.90;;;;;;5047336;28;20049;-71
2023/04/07 08:37:46;;;;;;;19.27;17.38;;;9.10;99.90;;;;;;5062256;28;20053;-69
2023/04/07 08:40:12;;;;;;;16.92;15.23;;;9.20;99.90;;;;;;5066369;28;20028;-70
2023/04/07 08:42:42;;;;;;;16.60;14.90;;;9.20;99.90;;;;;;5045420;28;20196;-70
2023/04/07 08:45:08;;;;;;;16.48;14.88;;;9.30;99.90;;;;;;5039245;28;20124;-69
2023/04/07 08:47:36;;;;;;;17.30;15.55;;;9.30;99.90;;;;;;5056857;28;20045;-70
2023/04/07 08:50:07;;;;;;;15.07;13.68;;;9.30;99.90;;;;;;5063336;28;20127;-69
2023/04/07 08:52:42;;;;;;;14.88;13.43;;;9.40;99.90;;;;;;5036360;28;20556;-69
2023/04/07 08:55:09;;;;;;;14.20;12.80;;;9.50;99.90;;;;;;5066131;28;20479;-70
2023/04/07 08:57:36;;;;;;;12.80;11.50;;;9.50;99.90;;;;;;5051379;28;20040;-70
2023/04/07 09:00:04;;;;;;;14.15;12.68;;;9.50;99.90;;;;;;5058468;28;20048;-71
2023/04/07 09:02:35;;;;;;;13.52;12.20;;;9.50;99.90;;;;;;5065464;28;20061;-71
2023/04/07 09:05:06;;;;;;;13.50;12.23;;;9.50;99.90;;;;;;5069154;28;20121;-72
2023/04/07 09:07:33;;;;;;;14.30;12.93;;;9.50;99.90;;;;;;5057228;28;20084;-71
2023/04/07 09:10:02;;;;;;;15.20;13.80;;;9.50;99.90;;;;;;5045912;28;20049;-71
2023/04/07 09:12:28;;;;;;;14.43;13.13;;;9.50;99.90;;;;;;5067907;28;20051;-72
2023/04/07 09:14:54;;;;;;;14.40;12.93;;;9.60;99.90;;;;;;5055739;28;20056;-70
2023/04/07 09:17:20;;;;;;;14.65;13.23;;;9.60;99.90;;;;;;5057981;28;20033;-71
2023/04/07 09:19:49;;;;;;;15.63;14.15;;;9.70;99.90;;;;;;5056446;28;20036;-71
2023/04/07 09:22:44;;;;;;;15.23;13.73;;;9.70;99.90;;;;;;5065162;28;20071;-71
2023/04/07 09:25:19;;;;;;;14.90;13.40;;;9.70;99.90;;;;;;5049039;28;20037;-71
2023/04/07 09:27:58;;;;;;;13.73;12.32;;;9.70;99.90;;;;;;5056437;28;20049;-71
2023/04/07 09:30:24;;;;;;;13.90;12.50;;;9.80;99.90;;;;;;5055898;28;20040;-71
2023/04/07 09:32:50;;;;;;;13.15;11.85;;;9.90;99.90;;;;;;5066595;28;20563;-72
2023/04/07 09:35:16;;;;;;;13.07;11.80;;;9.90;99.90;;;;;;5064468;28;20108;-71
2023/04/07 09:38:00;;;;;;;12.45;11.25;;;10.00;99.90;;;;;;5060506;28;20037;-70
2023/04/07 09:40:26;;;;;;;11.40;10.30;;;10.00;99.90;;;;;;5045821;28;20123;-70
2023/04/07 09:42:52;;;;;;;14.23;12.88;;;10.00;99.90;;;;;;5068853;28;20097;-71
2023/04/07 09:45:38;;;;;;;13.52;12.23;;;10.10;99.90;;;;;;5052335;28;20041;-69
2023/04/07 09:48:16;;;;;;;12.40;11.20;;;10.20;99.90;;;;;;5046404;28;20299;-68
2023/04/07 09:50:44;;;;;;;11.68;10.48;;;10.30;99.90;;;;;;5061777;28;20045;-70
2023/04/07 09:53:10;;;;;;;12.43;11.20;;;10.40;99.90;;;;;;5055279;28;20399;-70
2023/04/07 09:55:38;;;;;;;12.05;10.88;;;10.50;99.90;;;;;;5053979;28;20040;-71
2023/04/07 09:58:05;;;;;;;12.55;11.25;;;10.50;99.90;;;;;;5045578;28;20538;-71
2023/04/07 10:00:31;;;;;;;12.90;11.60;;;10.60;99.90;;;;;;5058840;28;20120;-70
2023/04/07 10:02:57;;;;;;;12.82;11.63;;;10.70;99.90;;;;;;5059919;28;20303;-68
2023/04/07 10:05:24;;;;;;;13.68;12.20;;;10.60;99.90;;;;;;5063163;28;20036;-71
2023/04/07 10:07:50;;;;;;;14.00;12.35;;;10.50;99.90;;;;;;5065565;28;20396;-73
2023/04/07 10:10:16;;;;;;;13.23;11.88;;;10.40;99.90;;;;;;5062541;28;20461;-73
2023/04/07 10:12:42;;;;;;;13.10;11.82;;;10.30;99.90;;;;;;5046786;28;20061;-71
2023/04/07 10:15:10;;;;;;;14.23;12.80;;;10.20;99.90;;;;;;5038905;28;20056;-70
2023/04/07 10:17:38;;;;;;;14.23;12.82;;;10.20;99.90;;;;;;5044629;28;20036;-73
2023/04/07 10:20:05;;;;;;;14.32;12.82;;;10.10;99.90;;;;;;5063364;28;20111;-71
2023/04/07 10:22:32;;;;;;;;;;;10.10;99.90;;;;;;5064587;28;20063;-72
2023/04/07 10:25:01;;;;;;;14.63;13.02;;;10.00;99.90;;;;;;5039553;28;19917;-72
2023/04/07 10:27:34;;;;;;;14.02;12.63;;;10.00;99.90;;;;;;5044449;28;20045;-73
2023/04/07 10:30:03;;;;;;;11.25;9.93;;;10.00;99.90;;;;;;5034736;28;20041;-72
2023/04/07 10:32:29;;;;;;;11.52;10.35;;;10.00;99.90;;;;;;5054231;28;20041;-73
2023/04/07 10:34:56;;;;;;;9.98;8.93;;;10.10;99.90;;;;;;5059684;28;20045;-72
2023/04/07 10:37:24;;;;;;;12.13;9.73;;;10.10;99.90;;;;;;5057457;28;20076;-73
2023/04/07 10:40:20;;;;;;;10.55;9.55;;;10.20;99.90;;;;;;5030292;28;20095;-73
2023/04/07 10:42:49;;;;;;;10.67;9.60;;;10.20;99.90;;;;;;5058737;28;20068;-73
2023/04/07 10:45:15;;;;;;;10.85;9.75;;;10.20;99.90;;;;;;5041549;28;20052;-79
2023/04/07 10:48:00;;;;;;;10.27;9.18;;;10.30;99.90;;;;;;5041387;28;20047;-73
2023/04/07 10:50:27;;;;;;;11.45;9.90;;;10.20;99.90;;;;;;5050065;28;20135;-73
2023/04/07 10:53:08;;;;;;;11.50;10.32;;;10.30;99.90;;;;;;5043483;28;20052;-73
2023/04/07 10:55:53;;;;;;;10.98;9.65;;;10.30;99.90;;;;;;5052689;28;20128;-74
2023/04/07 10:58:32;;;;;;;11.57;10.48;;;10.30;99.90;;;;;;5025727;28;20341;-72
2023/04/07 11:01:07;;;;;;;11.75;10.63;;;10.30;99.90;;;;;;5058833;28;20518;-75
2023/04/07 11:03:35;;;;;;;12.00;10.88;;;10.30;99.90;;;;;;5032413;28;20135;-73
2023/04/07 11:06:12;;;;;;;13.35;11.35;;;10.20;99.90;;;;;;5034973;28;20049;-73
2023/04/07 11:08:41;;;;;;;13.80;12.43;;;10.20;99.90;;;;;;5033544;28;20507;-75
2023/04/07 11:11:09;;;;;;;13.70;12.40;;;10.20;99.90;;;;;;5056503;28;20110;-72
2023/04/07 11:13:45;;;;;;;14.50;13.05;;;10.20;99.90;;;;;;5040249;28;20063;-72
2023/04/07 11:16:17;;;;;;;13.52;12.23;;;10.20;99.90;;;;;;5040501;28;20121;-72
2023/04/07 11:18:56;;;;;;;13.88;12.48;;;10.20;99.90;;;;;;5037625;23;20050;-74
2023/04/07 11:21:24;;;;;;;13.45;12.10;;;10.20;99.90;;;;;;4997668;28;20042;-72
2023/04/07 11:24:09;;;;;;;11.95;10.75;;;10.20;99.90;;;;;;5012463;28;20196;-73
2023/04/07 11:26:40;;;;;;;11.55;10.35;;;10.20;99.90;;;;;;5013597;28;20045;-73
2023/04/07 11:29:10;;;;;;;11.68;10.57;;;10.20;99.90;;;;;;5021080;28;20049;-72
2023/04/07 11:31:37;;;;;;;11.93;10.82;;;10.20;99.90;;;;;;4993026;28;20042;-72
2023/04/07 11:34:04;;;;;;;11.13;10.03;;;10.30;99.90;;;;;;5016029;28;20038;-72
2023/04/07 11:36:31;;;;;;;11.30;10.15;;;10.30;99.90;;;;;;4988828;28;20370;-72
2023/04/07 11:38:57;;;;;;;11.23;10.13;;;10.30;99.90;;;;;;5000905;28;20124;-70
2023/04/07 11:41:25;;;;;;;11.43;10.02;;;10.40;99.90;;;;;;5003135;28;20094;-71
2023/04/07 11:44:04;;;;;;;11.60;10.50;;;10.40;99.90;;;;;;5015795;28;20037;-72
2023/04/07 11:46:29;;;;;;;11.45;10.15;;;10.50;99.90;;;;;;5016932;28;20107;-69
2023/04/07 11:49:11;;;;;;;11.00;9.80;;;10.50;99.90;;;;;;4996684;28;20432;-69
2023/04/07 11:51:37;;;;;;;10.88;9.68;;;10.60;99.90;;;;;;5007173;28;20628;-69
2023/04/07 11:54:02;;;;;;;11.30;10.07;;;10.60;99.90;;;;;;5006359;28;20042;-68
2023/04/07 11:56:29;;;;;;;21.65;11.65;;;10.70;99.90;;;;;;5015680;28;20492;-68
2023/04/07 11:58:55;;;;;;;11.15;9.82;;;10.70;99.90;;;;;;5017288;28;20061;-69
2023/04/07 12:01:23;;;;;;;11.00;9.90;;;10.70;99.90;;;;;;5000794;28;20518;-68
2023/04/07 12:04:03;;;;;;;10.93;9.80;;;10.80;99.90;;;;;;5013769;28;20072;-68
2023/04/07 12:06:33;;;;;;;11.05;9.90;;;10.80;99.90;;;;;;5008403;28;20128;-69
2023/04/07 12:09:00;;;;;;;10.80;9.70;;;10.90;99.90;;;;;;4998795;28;20078;-69
2023/04/07 12:11:26;;;;;;;10.80;9.70;;;10.90;99.90;;;;;;5013895;28;20041;-70
2023/04/07 12:13:55;;;;;;;11.38;10.23;;;11.00;99.90;;;;;;5021576;28;20049;-70
2023/04/07 12:16:21;;;;;;;11.07;9.98;;;11.10;99.90;;;;;;5004393;28;20698;-71
2023/04/07 12:18:48;;;;;;;11.60;10.38;;;11.10;99.90;;;;;;5022355;28;20053;-70
2023/04/07 12:21:14;;;;;;;11.05;9.95;;;11.30;99.90;;;;;;5013271;28;20049;-71
2023/04/07 12:23:40;;;;;;;10.98;9.93;;;11.40;99.90;;;;;;5015328;28;20041;-72
2023/04/07 12:26:06;;;;;;;10.32;9.10;;;11.50;99.90;;;;;;5004934;28;20060;-72
2023/04/07 12:28:32;;;;;;;11.30;9.85;;;11.60;99.90;;;;;;4997269;28;20124;-72
2023/04/07 12:30:58;;;;;;;10.00;9.00;;;11.60;99.90;;;;;;5015616;28;20444;-72
2023/04/07 12:33:24;;;;;;;10.05;9.05;;;11.70;99.90;;;;;;5013978;28;20066;-71
2023/04/07 12:35:50;;;;;;;10.60;9.50;;;11.70;99.90;;;;;;5012038;28;20092;-71
2023/04/07 12:38:16;;;;;;;11.45;9.43;;;11.80;99.90;;;;;;5014848;28;20042;-71